sensor_id;sensor_type;location;lat;lon;timestamp;P1;durP1;ratioP1;P2;durP2;ratioP2
14377;SDS011;7272;53.668;9.578;2022-10-31T00:01:25;24.37;;;18.87;;
14377;SDS011;7272;53.668;9.578;2022-10-31T00:04:29;18.07;;;15.97;;
14377;SDS011;7272;53.668;9.578;2022-10-31T00:07:34;20.03;;;17.70;;
14377;SDS011;7272;53.668;9.578;2022-10-31T00:10:38;22.80;;;18.90;;
14377;SDS011;7272;53.668;9.578;2022-10-31T00:13:45;25.73;;;21.30;;
14377;SDS011;7272;53.668;9.578;2022-10-31T00:16:53;19.30;;;17.20;;
14377;SDS011;7272;53.668;9.578;2022-10-31T00:19:55;23.50;;;18.87;;
14377;SDS011;7272;53.668;9.578;2022-10-31T00:22:58;24.13;;;17.20;;
14377;SDS011;7272;53.668;9.578;2022-10-31T00:26:03;22.27;;;19.37;;
14377;SDS011;7272;53.668;9.578;2022-10-31T00:29:07;20.57;;;18.43;;
14377;SDS011;7272;53.668;9.578;2022-10-31T00:32:09;21.27;;;18.37;;
14377;SDS011;7272;53.668;9.578;2022-10-31T00:35:16;22.57;;;20.20;;
14377;SDS011;7272;53.668;9.578;2022-10-31T00:38:19;21.90;;;19.60;;
14377;SDS011;7272;53.668;9.578;2022-10-31T00:41:37;28.60;;;25.77;;
14377;SDS011;7272;53.668;9.578;2022-10-31T00:44:46;26.13;;;22.87;;
14377;SDS011;7272;53.668;9.578;2022-10-31T00:47:48;25.77;;;22.93;;
14377;SDS011;7272;53.668;9.578;2022-10-31T00:50:50;26.90;;;23.27;;
14377;SDS011;7272;53.668;9.578;2022-10-31T00:53:53;26.00;;;22.97;;
14377;SDS011;7272;53.668;9.578;2022-10-31T00:56:59;27.57;;;21.30;;
14377;SDS011;7272;53.668;9.578;2022-10-31T01:00:09;24.23;;;21.17;;
14377;SDS011;7272;53.668;9.578;2022-10-31T01:03:12;26.53;;;22.73;;
14377;SDS011;7272;53.668;9.578;2022-10-31T01:06:16;30.47;;;24.43;;
14377;SDS011;7272;53.668;9.578;2022-10-31T01:09:20;26.53;;;20.00;;
14377;SDS011;7272;53.668;9.578;2022-10-31T01:12:27;30.90;;;22.50;;
14377;SDS011;7272;53.668;9.578;2022-10-31T01:15:31;26.03;;;20.77;;
14377;SDS011;7272;53.668;9.578;2022-10-31T01:18:33;26.90;;;23.27;;
14377;SDS011;7272;53.668;9.578;2022-10-31T01:21:38;22.57;;;19.10;;
14377;SDS011;7272;53.668;9.578;2022-10-31T01:24:40;25.33;;;21.87;;
14377;SDS011;7272;53.668;9.578;2022-10-31T01:27:44;27.63;;;20.07;;
14377;SDS011;7272;53.668;9.578;2022-10-31T01:30:46;24.20;;;20.97;;
14377;SDS011;7272;53.668;9.578;2022-10-31T01:33:50;27.43;;;20.73;;
14377;SDS011;7272;53.668;9.578;2022-10-31T01:36:53;34.50;;;25.73;;
14377;SDS011;7272;53.668;9.578;2022-10-31T01:39:56;32.33;;;28.83;;
14377;SDS011;7272;53.668;9.578;2022-10-31T01:43:00;33.08;;;29.48;;
14377;SDS011;7272;53.668;9.578;2022-10-31T01:46:02;29.37;;;24.10;;
14377;SDS011;7272;53.668;9.578;2022-10-31T01:49:09;28.10;;;22.43;;
14377;SDS011;7272;53.668;9.578;2022-10-31T01:52:16;26.07;;;20.43;;
14377;SDS011;7272;53.668;9.578;2022-10-31T01:55:24;31.00;;;24.03;;
14377;SDS011;7272;53.668;9.578;2022-10-31T01:58:33;28.10;;;21.93;;
14377;SDS011;7272;53.668;9.578;2022-10-31T02:01:35;24.20;;;20.83;;
14377;SDS011;7272;53.668;9.578;2022-10-31T02:04:39;28.23;;;23.17;;
14377;SDS011;7272;53.668;9.578;2022-10-31T02:07:43;28.33;;;22.63;;
14377;SDS011;7272;53.668;9.578;2022-10-31T02:10:49;31.92;;;28.60;;
14377;SDS011;7272;53.668;9.578;2022-10-31T02:13:56;31.63;;;24.40;;
14377;SDS011;7272;53.668;9.578;2022-10-31T02:17:01;24.97;;;20.87;;
14377;SDS011;7272;53.668;9.578;2022-10-31T02:20:05;30.87;;;25.10;;
14377;SDS011;7272;53.668;9.578;2022-10-31T02:23:31;30.50;;;20.97;;
14377;SDS011;7272;53.668;9.578;2022-10-31T02:26:55;22.53;;;18.73;;
14377;SDS011;7272;53.668;9.578;2022-10-31T02:30:06;29.33;;;23.63;;
14377;SDS011;7272;53.668;9.578;2022-10-31T02:33:19;29.80;;;23.10;;
14377;SDS011;7272;53.668;9.578;2022-10-31T02:36:28;26.20;;;20.40;;
14377;SDS011;7272;53.668;9.578;2022-10-31T02:39:40;28.50;;;21.30;;
14377;SDS011;7272;53.668;9.578;2022-10-31T02:43:02;21.20;;;17.63;;
14377;SDS011;7272;53.668;9.578;2022-10-31T02:46:11;25.20;;;18.90;;
14377;SDS011;7272;53.668;9.578;2022-10-31T02:49:23;18.37;;;15.53;;
14377;SDS011;7272;53.668;9.578;2022-10-31T02:52:32;18.63;;;16.33;;
14377;SDS011;7272;53.668;9.578;2022-10-31T02:55:51;21.50;;;17.27;;
14377;SDS011;7272;53.668;9.578;2022-10-31T02:59:00;20.00;;;15.43;;
14377;SDS011;7272;53.668;9.578;2022-10-31T03:02:06;20.57;;;16.50;;
14377;SDS011;7272;53.668;9.578;2022-10-31T03:08:50;23.03;;;18.53;;
14377;SDS011;7272;53.668;9.578;2022-10-31T03:12:03;29.70;;;26.15;;
14377;SDS011;7272;53.668;9.578;2022-10-31T03:15:12;22.80;;;18.03;;
14377;SDS011;7272;53.668;9.578;2022-10-31T03:18:20;22.10;;;18.97;;
14377;SDS011;7272;53.668;9.578;2022-10-31T03:21:31;21.43;;;17.97;;
14377;SDS011;7272;53.668;9.578;2022-10-31T03:24:37;21.40;;;17.30;;
14377;SDS011;7272;53.668;9.578;2022-10-31T03:27:41;25.97;;;19.47;;
14377;SDS011;7272;53.668;9.578;2022-10-31T03:30:46;25.73;;;20.10;;
14377;SDS011;7272;53.668;9.578;2022-10-31T03:33:51;24.23;;;18.77;;
14377;SDS011;7272;53.668;9.578;2022-10-31T03:36:57;34.73;;;24.43;;
14377;SDS011;7272;53.668;9.578;2022-10-31T03:40:03;28.57;;;22.07;;
14377;SDS011;7272;53.668;9.578;2022-10-31T03:43:10;26.47;;;21.63;;
14377;SDS011;7272;53.668;9.578;2022-10-31T03:46:18;34.93;;;23.93;;
14377;SDS011;7272;53.668;9.578;2022-10-31T03:49:20;29.93;;;22.40;;
14377;SDS011;7272;53.668;9.578;2022-10-31T03:52:25;27.83;;;23.37;;
14377;SDS011;7272;53.668;9.578;2022-10-31T03:55:34;32.73;;;22.00;;
14377;SDS011;7272;53.668;9.578;2022-10-31T03:58:47;32.93;;;23.33;;
14377;SDS011;7272;53.668;9.578;2022-10-31T04:01:57;26.40;;;20.53;;
14377;SDS011;7272;53.668;9.578;2022-10-31T04:05:03;31.03;;;22.60;;
14377;SDS011;7272;53.668;9.578;2022-10-31T04:08:09;37.87;;;25.63;;
14377;SDS011;7272;53.668;9.578;2022-10-31T04:11:17;29.37;;;22.07;;
14377;SDS011;7272;53.668;9.578;2022-10-31T04:14:45;37.87;;;25.43;;
14377;SDS011;7272;53.668;9.578;2022-10-31T04:17:53;52.37;;;27.97;;
14377;SDS011;7272;53.668;9.578;2022-10-31T04:21:00;28.93;;;21.20;;
14377;SDS011;7272;53.668;9.578;2022-10-31T04:24:05;29.20;;;21.00;;
14377;SDS011;7272;53.668;9.578;2022-10-31T04:27:08;32.13;;;20.13;;
14377;SDS011;7272;53.668;9.578;2022-10-31T04:30:10;54.80;;;27.13;;
14377;SDS011;7272;53.668;9.578;2022-10-31T04:33:14;71.33;;;28.97;;
14377;SDS011;7272;53.668;9.578;2022-10-31T04:36:19;45.97;;;24.30;;
14377;SDS011;7272;53.668;9.578;2022-10-31T04:39:23;73.60;;;26.50;;
14377;SDS011;7272;53.668;9.578;2022-10-31T04:42:44;80.75;;;28.85;;
14377;SDS011;7272;53.668;9.578;2022-10-31T04:45:46;54.47;;;24.80;;
14377;SDS011;7272;53.668;9.578;2022-10-31T04:48:49;44.37;;;21.90;;
14377;SDS011;7272;53.668;9.578;2022-10-31T04:51:51;62.30;;;25.80;;
14377;SDS011;7272;53.668;9.578;2022-10-31T04:54:55;49.60;;;22.57;;
14377;SDS011;7272;53.668;9.578;2022-10-31T04:58:23;40.43;;;21.60;;
14377;SDS011;7272;53.668;9.578;2022-10-31T05:01:25;30.87;;;19.37;;
14377;SDS011;7272;53.668;9.578;2022-10-31T05:04:29;54.50;;;19.67;;
14377;SDS011;7272;53.668;9.578;2022-10-31T05:07:31;61.20;;;20.90;;
14377;SDS011;7272;53.668;9.578;2022-10-31T05:10:35;32.13;;;17.40;;
14377;SDS011;7272;53.668;9.578;2022-10-31T05:13:38;17.90;;;13.20;;
14377;SDS011;7272;53.668;9.578;2022-10-31T05:16:47;15.87;;;14.27;;
14377;SDS011;7272;53.668;9.578;2022-10-31T05:20:15;16.60;;;14.83;;
14377;SDS011;7272;53.668;9.578;2022-10-31T05:23:39;49.27;;;24.60;;
14377;SDS011;7272;53.668;9.578;2022-10-31T05:26:43;32.27;;;21.80;;
14377;SDS011;7272;53.668;9.578;2022-10-31T05:29:47;17.93;;;16.00;;
14377;SDS011;7272;53.668;9.578;2022-10-31T05:32:50;17.47;;;15.13;;
14377;SDS011;7272;53.668;9.578;2022-10-31T05:36:11;19.47;;;14.83;;
14377;SDS011;7272;53.668;9.578;2022-10-31T05:39:23;26.60;;;18.00;;
14377;SDS011;7272;53.668;9.578;2022-10-31T05:42:30;24.93;;;17.23;;
14377;SDS011;7272;53.668;9.578;2022-10-31T05:45:33;20.23;;;15.83;;
14377;SDS011;7272;53.668;9.578;2022-10-31T05:48:40;19.60;;;14.70;;
14377;SDS011;7272;53.668;9.578;2022-10-31T05:52:01;30.83;;;19.87;;
14377;SDS011;7272;53.668;9.578;2022-10-31T05:55:19;18.83;;;15.97;;
14377;SDS011;7272;53.668;9.578;2022-10-31T05:58:40;22.93;;;15.37;;
14377;SDS011;7272;53.668;9.578;2022-10-31T06:01:42;18.30;;;16.07;;
14377;SDS011;7272;53.668;9.578;2022-10-31T06:05:00;28.00;;;19.13;;
14377;SDS011;7272;53.668;9.578;2022-10-31T06:08:02;22.37;;;18.07;;
14377;SDS011;7272;53.668;9.578;2022-10-31T06:11:04;17.63;;;15.77;;
14377;SDS011;7272;53.668;9.578;2022-10-31T06:14:26;20.83;;;16.17;;
14377;SDS011;7272;53.668;9.578;2022-10-31T06:17:31;15.13;;;13.37;;
14377;SDS011;7272;53.668;9.578;2022-10-31T06:21:01;14.50;;;13.10;;
14377;SDS011;7272;53.668;9.578;2022-10-31T06:24:03;25.10;;;17.30;;
14377;SDS011;7272;53.668;9.578;2022-10-31T06:27:32;21.80;;;16.07;;
14377;SDS011;7272;53.668;9.578;2022-10-31T06:30:41;31.90;;;16.50;;
14377;SDS011;7272;53.668;9.578;2022-10-31T06:33:48;29.67;;;15.13;;
14377;SDS011;7272;53.668;9.578;2022-10-31T06:36:51;26.33;;;14.07;;
14377;SDS011;7272;53.668;9.578;2022-10-31T06:39:56;27.43;;;14.73;;
14377;SDS011;7272;53.668;9.578;2022-10-31T06:42:59;12.07;;;10.97;;
14377;SDS011;7272;53.668;9.578;2022-10-31T06:46:04;24.73;;;17.40;;
14377;SDS011;7272;53.668;9.578;2022-10-31T06:49:16;15.13;;;12.37;;
14377;SDS011;7272;53.668;9.578;2022-10-31T06:52:28;35.67;;;15.70;;
14377;SDS011;7272;53.668;9.578;2022-10-31T06:55:30;15.37;;;11.67;;
14377;SDS011;7272;53.668;9.578;2022-10-31T06:58:33;15.77;;;12.43;;
14377;SDS011;7272;53.668;9.578;2022-10-31T07:01:39;18.40;;;11.73;;
14377;SDS011;7272;53.668;9.578;2022-10-31T07:04:41;19.27;;;12.07;;
14377;SDS011;7272;53.668;9.578;2022-10-31T07:07:46;35.70;;;16.30;;
14377;SDS011;7272;53.668;9.578;2022-10-31T07:10:54;28.37;;;14.20;;
14377;SDS011;7272;53.668;9.578;2022-10-31T07:13:58;13.57;;;12.17;;
14377;SDS011;7272;53.668;9.578;2022-10-31T07:17:02;17.03;;;13.27;;
14377;SDS011;7272;53.668;9.578;2022-10-31T07:20:08;13.45;;;12.25;;
14377;SDS011;7272;53.668;9.578;2022-10-31T07:23:11;41.93;;;14.60;;
14377;SDS011;7272;53.668;9.578;2022-10-31T07:26:16;20.77;;;12.93;;
14377;SDS011;7272;53.668;9.578;2022-10-31T07:29:22;20.63;;;13.07;;
14377;SDS011;7272;53.668;9.578;2022-10-31T07:32:26;27.07;;;13.33;;
14377;SDS011;7272;53.668;9.578;2022-10-31T07:35:31;29.93;;;13.83;;
14377;SDS011;7272;53.668;9.578;2022-10-31T07:38:35;18.37;;;12.10;;
14377;SDS011;7272;53.668;9.578;2022-10-31T07:41:38;19.40;;;11.90;;
14377;SDS011;7272;53.668;9.578;2022-10-31T07:44:43;27.40;;;12.87;;
14377;SDS011;7272;53.668;9.578;2022-10-31T07:48:05;7.80;;;7.00;;
14377;SDS011;7272;53.668;9.578;2022-10-31T07:54:56;64.77;;;15.20;;
14377;SDS011;7272;53.668;9.578;2022-10-31T07:57:58;26.73;;;11.73;;
14377;SDS011;7272;53.668;9.578;2022-10-31T08:01:02;30.73;;;12.83;;
14377;SDS011;7272;53.668;9.578;2022-10-31T08:04:15;17.10;;;10.77;;
14377;SDS011;7272;53.668;9.578;2022-10-31T08:07:36;26.07;;;12.40;;
14377;SDS011;7272;53.668;9.578;2022-10-31T08:10:41;35.40;;;12.27;;
14377;SDS011;7272;53.668;9.578;2022-10-31T08:13:43;24.37;;;12.40;;
14377;SDS011;7272;53.668;9.578;2022-10-31T08:16:48;15.93;;;9.13;;
14377;SDS011;7272;53.668;9.578;2022-10-31T08:19:51;27.67;;;11.00;;
14377;SDS011;7272;53.668;9.578;2022-10-31T08:22:59;31.60;;;11.60;;
14377;SDS011;7272;53.668;9.578;2022-10-31T08:26:02;9.70;;;8.23;;
14377;SDS011;7272;53.668;9.578;2022-10-31T08:29:06;10.77;;;9.77;;
14377;SDS011;7272;53.668;9.578;2022-10-31T08:32:10;29.47;;;12.23;;
14377;SDS011;7272;53.668;9.578;2022-10-31T08:35:32;18.40;;;10.70;;
14377;SDS011;7272;53.668;9.578;2022-10-31T08:38:58;14.30;;;10.23;;
14377;SDS011;7272;53.668;9.578;2022-10-31T08:42:01;11.97;;;9.93;;
14377;SDS011;7272;53.668;9.578;2022-10-31T08:45:06;10.93;;;9.10;;
14377;SDS011;7272;53.668;9.578;2022-10-31T08:48:10;15.00;;;9.90;;
14377;SDS011;7272;53.668;9.578;2022-10-31T08:51:15;24.23;;;16.92;;
14377;SDS011;7272;53.668;9.578;2022-10-31T08:54:18;18.80;;;12.77;;
14377;SDS011;7272;53.668;9.578;2022-10-31T08:57:23;12.90;;;9.57;;
14377;SDS011;7272;53.668;9.578;2022-10-31T09:00:27;13.43;;;9.50;;
14377;SDS011;7272;53.668;9.578;2022-10-31T09:03:36;10.97;;;9.43;;
14377;SDS011;7272;53.668;9.578;2022-10-31T09:06:40;9.57;;;8.03;;
14377;SDS011;7272;53.668;9.578;2022-10-31T09:09:42;13.43;;;10.87;;
14377;SDS011;7272;53.668;9.578;2022-10-31T09:12:44;12.23;;;10.73;;
14377;SDS011;7272;53.668;9.578;2022-10-31T09:16:27;12.87;;;9.70;;
14377;SDS011;7272;53.668;9.578;2022-10-31T09:19:29;9.70;;;8.83;;
14377;SDS011;7272;53.668;9.578;2022-10-31T09:22:32;7.20;;;6.60;;
14377;SDS011;7272;53.668;9.578;2022-10-31T09:25:35;10.30;;;9.30;;
14377;SDS011;7272;53.668;9.578;2022-10-31T09:29:02;10.07;;;9.00;;
14377;SDS011;7272;53.668;9.578;2022-10-31T09:32:06;9.63;;;8.80;;
14377;SDS011;7272;53.668;9.578;2022-10-31T09:35:13;9.00;;;8.13;;
14377;SDS011;7272;53.668;9.578;2022-10-31T09:38:17;11.00;;;9.93;;
14377;SDS011;7272;53.668;9.578;2022-10-31T09:41:24;9.63;;;8.83;;
14377;SDS011;7272;53.668;9.578;2022-10-31T09:44:35;20.03;;;11.73;;
14377;SDS011;7272;53.668;9.578;2022-10-31T09:48:09;15.70;;;14.30;;
14377;SDS011;7272;53.668;9.578;2022-10-31T09:51:53;9.37;;;8.47;;
14377;SDS011;7272;53.668;9.578;2022-10-31T09:55:05;11.90;;;10.83;;
14377;SDS011;7272;53.668;9.578;2022-10-31T09:58:18;9.77;;;8.80;;
14377;SDS011;7272;53.668;9.578;2022-10-31T10:04:51;12.00;;;10.83;;
14377;SDS011;7272;53.668;9.578;2022-10-31T10:08:00;9.37;;;8.57;;
14377;SDS011;7272;53.668;9.578;2022-10-31T10:11:40;8.77;;;8.07;;
14377;SDS011;7272;53.668;9.578;2022-10-31T10:15:04;11.37;;;10.30;;
14377;SDS011;7272;53.668;9.578;2022-10-31T10:18:32;11.33;;;10.23;;
14377;SDS011;7272;53.668;9.578;2022-10-31T10:21:46;10.77;;;9.83;;
14377;SDS011;7272;53.668;9.578;2022-10-31T10:24:55;10.50;;;9.60;;
14377;SDS011;7272;53.668;9.578;2022-10-31T10:28:08;12.60;;;11.17;;
14377;SDS011;7272;53.668;9.578;2022-10-31T10:31:21;11.33;;;10.23;;
14377;SDS011;7272;53.668;9.578;2022-10-31T10:34:29;12.23;;;11.07;;
14377;SDS011;7272;53.668;9.578;2022-10-31T10:37:37;12.10;;;10.90;;
14377;SDS011;7272;53.668;9.578;2022-10-31T10:40:43;13.23;;;12.00;;
14377;SDS011;7272;53.668;9.578;2022-10-31T10:43:49;12.27;;;11.00;;
14377;SDS011;7272;53.668;9.578;2022-10-31T10:46:54;12.17;;;10.80;;
14377;SDS011;7272;53.668;9.578;2022-10-31T10:50:18;11.53;;;10.43;;
14377;SDS011;7272;53.668;9.578;2022-10-31T10:53:28;12.13;;;11.03;;
14377;SDS011;7272;53.668;9.578;2022-10-31T10:56:52;14.97;;;12.70;;
14377;SDS011;7272;53.668;9.578;2022-10-31T11:00:11;13.37;;;12.13;;
14377;SDS011;7272;53.668;9.578;2022-10-31T11:03:20;14.40;;;12.90;;
14377;SDS011;7272;53.668;9.578;2022-10-31T11:06:23;14.73;;;13.27;;
14377;SDS011;7272;53.668;9.578;2022-10-31T11:09:26;18.33;;;16.43;;
14377;SDS011;7272;53.668;9.578;2022-10-31T11:12:30;17.17;;;15.47;;
14377;SDS011;7272;53.668;9.578;2022-10-31T11:15:39;17.37;;;15.57;;
14377;SDS011;7272;53.668;9.578;2022-10-31T11:18:52;16.07;;;14.37;;
14377;SDS011;7272;53.668;9.578;2022-10-31T11:22:07;18.70;;;16.90;;
14377;SDS011;7272;53.668;9.578;2022-10-31T11:25:21;14.20;;;12.87;;
14377;SDS011;7272;53.668;9.578;2022-10-31T11:28:24;14.27;;;12.40;;
14377;SDS011;7272;53.668;9.578;2022-10-31T11:31:30;14.27;;;12.83;;
14377;SDS011;7272;53.668;9.578;2022-10-31T11:34:36;11.97;;;10.87;;
14377;SDS011;7272;53.668;9.578;2022-10-31T11:37:46;11.27;;;10.10;;
14377;SDS011;7272;53.668;9.578;2022-10-31T11:40:57;12.33;;;11.10;;
14377;SDS011;7272;53.668;9.578;2022-10-31T11:44:02;11.13;;;9.87;;
14377;SDS011;7272;53.668;9.578;2022-10-31T11:47:11;7.40;;;6.03;;
14377;SDS011;7272;53.668;9.578;2022-10-31T11:50:18;5.63;;;4.60;;
14377;SDS011;7272;53.668;9.578;2022-10-31T11:53:24;4.73;;;4.20;;
14377;SDS011;7272;53.668;9.578;2022-10-31T11:56:37;6.80;;;6.03;;
14377;SDS011;7272;53.668;9.578;2022-10-31T12:01:21;8.17;;;5.67;;
14377;SDS011;7272;53.668;9.578;2022-10-31T12:04:37;5.33;;;4.50;;
14377;SDS011;7272;53.668;9.578;2022-10-31T12:07:43;7.40;;;5.10;;
14377;SDS011;7272;53.668;9.578;2022-10-31T12:10:47;8.97;;;8.07;;
14377;SDS011;7272;53.668;9.578;2022-10-31T12:14:02;8.13;;;6.90;;
14377;SDS011;7272;53.668;9.578;2022-10-31T12:17:15;9.43;;;8.10;;
14377;SDS011;7272;53.668;9.578;2022-10-31T12:20:23;9.63;;;7.77;;
14377;SDS011;7272;53.668;9.578;2022-10-31T12:23:38;10.23;;;7.63;;
14377;SDS011;7272;53.668;9.578;2022-10-31T12:26:51;7.77;;;6.97;;
14377;SDS011;7272;53.668;9.578;2022-10-31T12:30:08;9.73;;;8.17;;
14377;SDS011;7272;53.668;9.578;2022-10-31T12:33:29;9.60;;;8.50;;
14377;SDS011;7272;53.668;9.578;2022-10-31T12:40:39;9.73;;;8.50;;
14377;SDS011;7272;53.668;9.578;2022-10-31T12:43:55;6.80;;;6.10;;
14377;SDS011;7272;53.668;9.578;2022-10-31T12:47:06;7.27;;;6.57;;
14377;SDS011;7272;53.668;9.578;2022-10-31T12:50:29;6.43;;;5.77;;
14377;SDS011;7272;53.668;9.578;2022-10-31T12:53:58;5.23;;;4.73;;
14377;SDS011;7272;53.668;9.578;2022-10-31T12:58:49;8.13;;;7.38;;
14377;SDS011;7272;53.668;9.578;2022-10-31T13:06:29;8.50;;;7.70;;
14377;SDS011;7272;53.668;9.578;2022-10-31T13:10:55;7.77;;;6.97;;
14377;SDS011;7272;53.668;9.578;2022-10-31T13:14:18;7.87;;;7.07;;
14377;SDS011;7272;53.668;9.578;2022-10-31T13:17:31;7.93;;;7.17;;
14377;SDS011;7272;53.668;9.578;2022-10-31T13:20:57;8.03;;;7.23;;
14377;SDS011;7272;53.668;9.578;2022-10-31T13:24:07;11.32;;;10.23;;
14377;SDS011;7272;53.668;9.578;2022-10-31T13:27:45;9.90;;;9.00;;
14377;SDS011;7272;53.668;9.578;2022-10-31T13:31:00;9.03;;;7.27;;
14377;SDS011;7272;53.668;9.578;2022-10-31T13:34:42;8.47;;;7.73;;
14377;SDS011;7272;53.668;9.578;2022-10-31T13:37:52;7.13;;;6.43;;
14377;SDS011;7272;53.668;9.578;2022-10-31T13:41:15;8.43;;;7.10;;
14377;SDS011;7272;53.668;9.578;2022-10-31T13:44:27;9.27;;;7.17;;
14377;SDS011;7272;53.668;9.578;2022-10-31T13:47:34;9.47;;;7.73;;
14377;SDS011;7272;53.668;9.578;2022-10-31T13:50:37;10.13;;;8.97;;
14377;SDS011;7272;53.668;9.578;2022-10-31T13:53:43;9.40;;;8.40;;
14377;SDS011;7272;53.668;9.578;2022-10-31T13:56:48;10.87;;;9.77;;
14377;SDS011;7272;53.668;9.578;2022-10-31T13:59:55;9.47;;;8.33;;
14377;SDS011;7272;53.668;9.578;2022-10-31T14:03:18;9.63;;;8.70;;
14377;SDS011;7272;53.668;9.578;2022-10-31T14:06:45;10.07;;;9.10;;
14377;SDS011;7272;53.668;9.578;2022-10-31T14:09:53;8.80;;;8.00;;
14377;SDS011;7272;53.668;9.578;2022-10-31T14:13:03;12.00;;;11.00;;
14377;SDS011;7272;53.668;9.578;2022-10-31T14:16:16;11.52;;;10.48;;
14377;SDS011;7272;53.668;9.578;2022-10-31T14:19:22;9.63;;;8.83;;
14377;SDS011;7272;53.668;9.578;2022-10-31T14:22:28;10.40;;;9.50;;
14377;SDS011;7272;53.668;9.578;2022-10-31T14:25:32;10.43;;;9.47;;
14377;SDS011;7272;53.668;9.578;2022-10-31T14:28:35;8.80;;;8.00;;
14377;SDS011;7272;53.668;9.578;2022-10-31T14:31:38;12.23;;;11.13;;
14377;SDS011;7272;53.668;9.578;2022-10-31T14:34:50;11.00;;;10.07;;
14377;SDS011;7272;53.668;9.578;2022-10-31T14:45:14;9.33;;;8.43;;
14377;SDS011;7272;53.668;9.578;2022-10-31T14:48:25;8.10;;;7.33;;
14377;SDS011;7272;53.668;9.578;2022-10-31T14:51:41;9.43;;;8.47;;
14377;SDS011;7272;53.668;9.578;2022-10-31T14:54:48;10.10;;;9.17;;
14377;SDS011;7272;53.668;9.578;2022-10-31T14:57:54;10.97;;;9.90;;
14377;SDS011;7272;53.668;9.578;2022-10-31T15:00:58;13.37;;;12.27;;
14377;SDS011;7272;53.668;9.578;2022-10-31T15:04:02;11.27;;;10.00;;
14377;SDS011;7272;53.668;9.578;2022-10-31T15:07:11;13.03;;;11.37;;
14377;SDS011;7272;53.668;9.578;2022-10-31T15:10:21;10.50;;;9.50;;
14377;SDS011;7272;53.668;9.578;2022-10-31T15:13:25;11.90;;;10.70;;
14377;SDS011;7272;53.668;9.578;2022-10-31T15:16:28;14.00;;;12.70;;
14377;SDS011;7272;53.668;9.578;2022-10-31T15:19:35;13.63;;;12.37;;
14377;SDS011;7272;53.668;9.578;2022-10-31T15:22:39;18.92;;;17.13;;
14377;SDS011;7272;53.668;9.578;2022-10-31T15:25:41;14.73;;;13.30;;
14377;SDS011;7272;53.668;9.578;2022-10-31T15:28:43;15.50;;;13.87;;
14377;SDS011;7272;53.668;9.578;2022-10-31T15:31:51;15.20;;;13.40;;
14377;SDS011;7272;53.668;9.578;2022-10-31T15:34:54;14.60;;;12.97;;
14377;SDS011;7272;53.668;9.578;2022-10-31T15:37:59;19.17;;;17.17;;
14377;SDS011;7272;53.668;9.578;2022-10-31T15:41:02;19.07;;;17.07;;
14377;SDS011;7272;53.668;9.578;2022-10-31T15:44:10;20.13;;;18.05;;
14377;SDS011;7272;53.668;9.578;2022-10-31T15:47:15;26.00;;;23.20;;
14377;SDS011;7272;53.668;9.578;2022-10-31T15:50:19;19.03;;;17.00;;
14377;SDS011;7272;53.668;9.578;2022-10-31T15:53:26;21.97;;;17.80;;
14377;SDS011;7272;53.668;9.578;2022-10-31T15:56:30;18.13;;;16.20;;
14377;SDS011;7272;53.668;9.578;2022-10-31T15:59:33;20.60;;;17.73;;
14377;SDS011;7272;53.668;9.578;2022-10-31T16:02:35;21.13;;;17.27;;
14377;SDS011;7272;53.668;9.578;2022-10-31T16:05:37;21.53;;;17.97;;
14377;SDS011;7272;53.668;9.578;2022-10-31T16:08:45;24.85;;;22.45;;
14377;SDS011;7272;53.668;9.578;2022-10-31T16:11:50;19.73;;;17.53;;
14377;SDS011;7272;53.668;9.578;2022-10-31T16:14:53;20.20;;;18.00;;
14377;SDS011;7272;53.668;9.578;2022-10-31T16:17:56;18.70;;;16.70;;
14377;SDS011;7272;53.668;9.578;2022-10-31T16:20:58;20.50;;;16.80;;
14377;SDS011;7272;53.668;9.578;2022-10-31T16:24:01;17.27;;;15.47;;
14377;SDS011;7272;53.668;9.578;2022-10-31T16:27:13;19.70;;;17.53;;
14377;SDS011;7272;53.668;9.578;2022-10-31T16:30:29;20.73;;;16.57;;
14377;SDS011;7272;53.668;9.578;2022-10-31T16:33:37;17.93;;;16.07;;
14377;SDS011;7272;53.668;9.578;2022-10-31T16:36:40;22.20;;;20.10;;
14377;SDS011;7272;53.668;9.578;2022-10-31T16:39:44;20.87;;;18.57;;
14377;SDS011;7272;53.668;9.578;2022-10-31T16:42:46;16.73;;;14.73;;
14377;SDS011;7272;53.668;9.578;2022-10-31T16:45:49;18.07;;;15.77;;
14377;SDS011;7272;53.668;9.578;2022-10-31T16:48:52;18.03;;;16.17;;
14377;SDS011;7272;53.668;9.578;2022-10-31T16:51:54;19.27;;;17.30;;
14377;SDS011;7272;53.668;9.578;2022-10-31T16:54:57;17.73;;;15.17;;
14377;SDS011;7272;53.668;9.578;2022-10-31T16:58:01;15.53;;;13.93;;
14377;SDS011;7272;53.668;9.578;2022-10-31T17:01:03;17.63;;;15.13;;
14377;SDS011;7272;53.668;9.578;2022-10-31T17:04:07;18.30;;;16.37;;
14377;SDS011;7272;53.668;9.578;2022-10-31T17:07:13;18.63;;;16.20;;
14377;SDS011;7272;53.668;9.578;2022-10-31T17:10:16;17.20;;;15.40;;
14377;SDS011;7272;53.668;9.578;2022-10-31T17:13:20;15.77;;;14.07;;
14377;SDS011;7272;53.668;9.578;2022-10-31T17:16:23;15.43;;;13.77;;
14377;SDS011;7272;53.668;9.578;2022-10-31T17:19:25;19.43;;;16.10;;
14377;SDS011;7272;53.668;9.578;2022-10-31T17:22:27;16.97;;;15.00;;
14377;SDS011;7272;53.668;9.578;2022-10-31T17:25:30;19.33;;;16.20;;
14377;SDS011;7272;53.668;9.578;2022-10-31T17:28:32;18.40;;;16.43;;
14377;SDS011;7272;53.668;9.578;2022-10-31T17:31:34;17.83;;;16.03;;
14377;SDS011;7272;53.668;9.578;2022-10-31T17:34:38;16.83;;;15.03;;
14377;SDS011;7272;53.668;9.578;2022-10-31T17:37:40;16.80;;;15.00;;
14377;SDS011;7272;53.668;9.578;2022-10-31T17:40:44;18.17;;;15.53;;
14377;SDS011;7272;53.668;9.578;2022-10-31T17:43:46;20.27;;;17.10;;
14377;SDS011;7272;53.668;9.578;2022-10-31T17:46:48;22.73;;;20.52;;
14377;SDS011;7272;53.668;9.578;2022-10-31T17:49:50;16.33;;;14.63;;
14377;SDS011;7272;53.668;9.578;2022-10-31T17:52:53;16.57;;;14.47;;
14377;SDS011;7272;53.668;9.578;2022-10-31T17:55:59;17.27;;;14.90;;
14377;SDS011;7272;53.668;9.578;2022-10-31T17:59:02;15.83;;;14.03;;
14377;SDS011;7272;53.668;9.578;2022-10-31T18:02:04;18.40;;;14.03;;
14377;SDS011;7272;53.668;9.578;2022-10-31T18:05:08;18.83;;;14.90;;
14377;SDS011;7272;53.668;9.578;2022-10-31T18:08:10;16.63;;;14.23;;
14377;SDS011;7272;53.668;9.578;2022-10-31T18:11:14;15.87;;;13.60;;
14377;SDS011;7272;53.668;9.578;2022-10-31T18:14:19;16.60;;;14.87;;
14377;SDS011;7272;53.668;9.578;2022-10-31T18:17:21;16.43;;;13.87;;
14377;SDS011;7272;53.668;9.578;2022-10-31T18:20:24;16.97;;;15.17;;
14377;SDS011;7272;53.668;9.578;2022-10-31T18:23:26;18.80;;;14.97;;
14377;SDS011;7272;53.668;9.578;2022-10-31T18:26:29;18.70;;;13.47;;
14377;SDS011;7272;53.668;9.578;2022-10-31T18:29:31;17.50;;;14.30;;
14377;SDS011;7272;53.668;9.578;2022-10-31T18:32:33;15.27;;;12.83;;
14377;SDS011;7272;53.668;9.578;2022-10-31T18:35:35;16.83;;;14.30;;
14377;SDS011;7272;53.668;9.578;2022-10-31T18:38:38;16.67;;;14.33;;
14377;SDS011;7272;53.668;9.578;2022-10-31T18:41:42;16.70;;;14.20;;
14377;SDS011;7272;53.668;9.578;2022-10-31T18:44:44;18.97;;;14.83;;
14377;SDS011;7272;53.668;9.578;2022-10-31T18:47:46;18.60;;;16.47;;
14377;SDS011;7272;53.668;9.578;2022-10-31T18:50:48;17.90;;;15.23;;
14377;SDS011;7272;53.668;9.578;2022-10-31T18:53:50;23.43;;;17.27;;
14377;SDS011;7272;53.668;9.578;2022-10-31T18:56:54;21.20;;;17.00;;
14377;SDS011;7272;53.668;9.578;2022-10-31T18:59:56;19.60;;;16.50;;
14377;SDS011;7272;53.668;9.578;2022-10-31T19:02:58;23.73;;;17.00;;
14377;SDS011;7272;53.668;9.578;2022-10-31T19:06:00;25.17;;;21.30;;
14377;SDS011;7272;53.668;9.578;2022-10-31T19:09:03;23.58;;;20.98;;
14377;SDS011;7272;53.668;9.578;2022-10-31T19:12:09;23.60;;;18.13;;